Time;durP1;ratioP1;P1;durP2;ratioP2;P2;SDS_P1;SDS_P2;PMS_P1;PMS_P2;Temp;Humidity;BMP_temperature;BMP_pressure;BME280_temperature;BME280_humidity;BME280_pressure;Samples;Min_cycle;Max_cycle;Signal;HPM_P1;HPM_P2
2021/09/22 00:01:41;;;;;;;20.90;14.38;;;14.90;99.90;;;;;;6210634;23;20623;-84
2021/09/22 00:04:08;;;;;;;22.50;14.02;;;14.80;99.90;;;;;;6201824;23;20172;-84
2021/09/22 00:06:35;;;;;;;25.73;16.45;;;14.80;99.90;;;;;;6200970;23;20176;-84
2021/09/22 00:09:02;;;;;;;20.63;14.98;;;14.70;99.90;;;;;;6200151;23;20200;-83
2021/09/22 00:11:31;;;;;;;20.67;15.85;;;14.70;99.90;;;;;;6201549;23;20196;-83
2021/09/22 00:13:58;;;;;;;27.45;18.13;;;14.70;99.90;;;;;;6200347;23;20221;-83
2021/09/22 00:16:25;;;;;;;26.98;18.13;;;14.60;99.90;;;;;;6199920;23;20279;-84
2021/09/22 00:18:52;;;;;;;29.83;19.42;;;14.50;99.90;;;;;;6200567;23;20210;-83
2021/09/22 00:21:20;;;;;;;20.63;16.67;;;14.60;99.90;;;;;;6206371;23;20172;-82
2021/09/22 00:23:47;;;;;;;25.75;19.30;;;14.50;99.90;;;;;;6211132;23;20211;-81
2021/09/22 00:26:15;;;;;;;32.63;20.83;;;14.60;99.90;;;;;;6202014;23;20248;-83
2021/09/22 00:28:44;;;;;;;25.27;18.88;;;14.60;99.90;;;;;;6201551;23;20226;-82
2021/09/22 00:31:11;;;;;;;25.85;19.92;;;14.50;99.90;;;;;;6199632;23;20203;-84
2021/09/22 00:33:38;;;;;;;26.10;19.05;;;14.50;99.90;;;;;;6201103;23;20232;-83
2021/09/22 00:36:06;;;;;;;26.73;21.00;;;14.50;99.90;;;;;;6202266;23;20192;-85
2021/09/22 00:38:33;;;;;;;23.65;19.17;;;14.50;99.90;;;;;;6207898;23;20227;-83
2021/09/22 00:41:01;;;;;;;24.75;20.23;;;14.50;99.90;;;;;;6213371;23;20629;-82
2021/09/22 00:43:28;;;;;;;33.95;23.10;;;14.40;99.90;;;;;;6214870;23;20167;-85
2021/09/22 00:46:03;;;;;;;30.20;21.83;;;14.40;99.90;;;;;;6215034;23;20200;-84
2021/09/22 00:48:31;;;;;;;32.97;21.85;;;14.40;99.90;;;;;;6214946;23;20188;-83
2021/09/22 00:50:59;;;;;;;28.63;20.80;;;14.40;99.90;;;;;;6214696;23;20191;-83
2021/09/22 00:53:26;;;;;;;29.40;22.83;;;14.40;99.90;;;;;;6214552;23;20212;-83
2021/09/22 00:55:53;;;;;;;33.03;23.75;;;14.40;99.90;;;;;;6214444;23;20183;-83
2021/09/22 00:58:21;;;;;;;30.10;20.50;;;14.40;99.90;;;;;;6213333;23;20180;-84
2021/09/22 01:00:48;;;;;;;29.23;21.88;;;14.40;99.90;;;;;;6208161;23;20180;-83
2021/09/22 01:03:17;;;;;;;25.75;21.58;;;14.40;99.90;;;;;;6207131;23;20168;-84
2021/09/22 01:05:45;;;;;;;33.35;23.58;;;14.50;99.90;;;;;;6204692;23;20196;-84
2021/09/22 01:08:15;;;;;;;36.10;25.98;;;14.30;99.90;;;;;;6203120;23;20675;-84
2021/09/22 01:10:42;;;;;;;41.13;26.40;;;14.30;99.90;;;;;;6200986;23;20159;-83
2021/09/22 01:13:10;;;;;;;29.33;22.38;;;14.20;99.90;;;;;;6201258;23;20251;-85
2021/09/22 01:15:39;;;;;;;35.42;25.88;;;14.20;99.90;;;;;;6202597;23;20227;-83
2021/09/22 01:18:10;;;;;;;36.20;26.48;;;14.20;99.90;;;;;;6201224;23;20200;-83
2021/09/22 01:20:40;;;;;;;35.30;25.60;;;14.10;99.90;;;;;;6201145;23;20183;-84
2021/09/22 01:23:09;;;;;;;25.17;21.00;;;14.10;99.90;;;;;;6201541;23;20181;-84
2021/09/22 01:25:38;;;;;;;39.08;26.33;;;14.00;99.90;;;;;;6201173;23;20232;-83
2021/09/22 01:42:08;;;;;;;42.00;29.85;;;13.80;99.90;;;;;;6108343;23;20186;-82
2021/09/22 01:44:36;;;;;;;42.15;30.52;;;13.80;99.90;;;;;;6110673;23;20159;-83
2021/09/22 01:47:51;;;;;;;40.65;28.88;;;13.70;99.90;;;;;;6201772;23;20203;-84
2021/09/22 01:50:31;;;;;;;48.78;30.33;;;13.70;99.90;;;;;;6201454;23;20179;-83
2021/09/22 01:52:59;;;;;;;39.10;25.60;;;13.70;99.90;;;;;;6201424;23;20164;-84
2021/09/22 01:55:26;;;;;;;37.17;28.67;;;13.70;99.90;;;;;;6201389;23;20250;-82
2021/09/22 01:57:55;;;;;;;37.75;29.08;;;13.70;99.90;;;;;;6202188;23;20568;-84
2021/09/22 02:00:22;;;;;;;41.28;29.38;;;13.70;99.90;;;;;;6200942;23;20203;-82
2021/09/22 02:02:49;;;;;;;42.58;31.05;;;13.70;99.90;;;;;;6200809;23;20181;-81
2021/09/22 02:05:17;;;;;;;42.78;32.67;;;13.60;99.90;;;;;;6200858;23;20530;-85
2021/09/22 02:07:47;;;;;;;40.75;27.88;;;13.60;99.90;;;;;;6200761;23;20168;-81
2021/09/22 02:10:15;;;;;;;42.63;29.73;;;13.40;99.90;;;;;;6201294;23;20160;-84
2021/09/22 02:12:42;;;;;;;47.38;32.05;;;13.70;99.90;;;;;;6203880;23;20185;-83
2021/09/22 02:15:21;;;;;;;50.35;31.10;;;13.50;99.90;;;;;;6205213;23;20195;-82
2021/09/22 02:17:48;;;;;;;47.63;31.08;;;13.50;99.90;;;;;;6204957;23;20783;-83
2021/09/22 02:20:16;;;;;;;51.55;30.77;;;13.50;99.90;;;;;;6206550;23;20167;-84
2021/09/22 02:22:43;;;;;;;46.70;33.08;;;13.50;99.90;;;;;;6205166;23;20176;-83
2021/09/22 02:25:23;;;;;;;40.33;29.92;;;13.50;99.90;;;;;;6205205;23;20185;-83
2021/09/22 02:27:50;;;;;;;34.60;27.05;;;13.50;99.90;;;;;;6201291;23;20167;-84
2021/09/22 02:30:23;;;;;;;47.90;31.55;;;13.50;99.90;;;;;;6201488;23;20176;-83
2021/09/22 02:35:48;;;;;;;46.58;31.25;;;13.50;99.90;;;;;;6201919;23;20248;-84
2021/09/22 02:38:15;;;;;;;50.45;34.00;;;13.50;99.90;;;;;;6207896;23;20195;-81
2021/09/22 02:40:43;;;;;;;42.58;29.88;;;13.60;99.90;;;;;;6210580;23;20175;-81
2021/09/22 02:43:21;;;;;;;47.33;30.10;;;13.60;99.90;;;;;;6209867;23;20196;-83
2021/09/22 02:45:58;;;;;;;47.03;30.45;;;13.60;99.90;;;;;;6210430;23;20228;-82
2021/09/22 02:48:25;;;;;;;50.72;34.13;;;13.70;99.90;;;;;;6210108;23;20206;-82
2021/09/22 02:50:57;;;;;;;48.75;30.05;;;13.70;99.90;;;;;;6210113;23;20259;-82
2021/09/22 02:53:27;;;;;;;40.50;29.23;;;13.60;99.90;;;;;;6210303;23;20167;-83
2021/09/22 02:55:54;;;;;;;47.95;31.80;;;13.60;99.90;;;;;;6209799;23;20200;-83
2021/09/22 02:58:21;;;;;;;44.40;31.45;;;13.60;99.90;;;;;;6210472;23;20258;-82
2021/09/22 03:00:50;;;;;;;43.63;32.78;;;13.50;99.90;;;;;;6209880;23;20180;-82
2021/09/22 03:03:18;;;;;;;40.50;27.95;;;13.50;99.90;;;;;;6210252;23;20267;-83
2021/09/22 03:05:45;;;;;;;44.63;30.77;;;13.50;99.90;;;;;;6206295;23;20195;-83
2021/09/22 03:08:14;;;;;;;43.05;29.85;;;13.50;99.90;;;;;;6202450;23;20199;-82
2021/09/22 03:10:41;;;;;;;43.38;29.83;;;13.50;99.90;;;;;;6202131;23;20191;-84
2021/09/22 03:13:08;;;;;;;57.58;30.20;;;13.50;99.90;;;;;;6200827;23;20184;-81
2021/09/22 03:15:36;;;;;;;49.05;31.60;;;13.40;99.90;;;;;;6204431;23;20179;-83
2021/09/22 03:18:05;;;;;;;44.90;32.65;;;13.40;99.90;;;;;;6211317;23;20198;-83
2021/09/22 03:20:32;;;;;;;35.22;26.75;;;13.40;99.90;;;;;;6212694;23;20156;-81
2021/09/22 03:23:01;;;;;;;46.00;30.85;;;13.40;99.90;;;;;;6212977;23;20164;-82
2021/09/22 03:25:28;;;;;;;49.85;30.67;;;13.40;99.90;;;;;;6212379;23;20174;-81
2021/09/22 03:27:56;;;;;;;42.63;25.77;;;13.40;99.90;;;;;;6213814;23;20218;-82
2021/09/22 03:30:23;;;;;;;49.90;31.48;;;13.40;99.90;;;;;;6213204;23;20215;-80
2021/09/22 03:32:51;;;;;;;50.78;32.03;;;13.40;99.90;;;;;;6213383;23;20179;-81
2021/09/22 03:35:20;;;;;;;46.10;30.95;;;13.40;99.90;;;;;;6213731;23;20173;-82
2021/09/22 03:37:47;;;;;;;46.92;31.05;;;13.40;99.90;;;;;;6213354;23;20195;-80
2021/09/22 03:40:14;;;;;;;50.65;31.70;;;13.40;99.90;;;;;;6213682;23;20166;-80
2021/09/22 03:42:42;;;;;;;45.58;30.48;;;13.40;99.90;;;;;;6213189;23;20163;-82
2021/09/22 03:45:11;;;;;;;36.47;27.48;;;13.40;99.90;;;;;;6213553;23;20164;-81
2021/09/22 03:47:38;;;;;;;43.55;30.23;;;13.40;99.90;;;;;;6213725;23;20191;-80
2021/09/22 03:50:07;;;;;;;44.60;30.35;;;13.40;99.90;;;;;;6213229;23;20188;-84
2021/09/22 03:52:35;;;;;;;36.40;27.35;;;13.40;99.90;;;;;;6203241;23;20194;-83
2021/09/22 03:55:03;;;;;;;44.63;29.48;;;13.40;99.90;;;;;;6201930;23;20190;-83
2021/09/22 03:57:31;;;;;;;45.90;32.08;;;13.40;99.90;;;;;;6202975;23;20226;-80
2021/09/22 03:59:58;;;;;;;53.92;32.40;;;13.40;99.90;;;;;;6201665;23;20253;-82
2021/09/22 04:02:26;;;;;;;43.05;30.58;;;13.40;99.90;;;;;;6204097;23;20687;-84
2021/09/22 04:04:53;;;;;;;42.33;29.27;;;13.30;99.90;;;;;;6206462;23;20183;-82
2021/09/22 04:07:20;;;;;;;44.50;30.65;;;13.30;99.90;;;;;;6206584;23;20235;-82
2021/09/22 04:09:49;;;;;;;37.13;27.27;;;13.30;99.90;;;;;;6207564;23;20194;-83
2021/09/22 04:12:17;;;;;;;49.25;30.85;;;13.30;99.90;;;;;;6204920;23;20260;-85
2021/09/22 04:14:44;;;;;;;45.08;30.58;;;13.20;99.90;;;;;;6203093;23;20184;-85
2021/09/22 04:17:12;;;;;;;46.60;29.52;;;13.20;99.90;;;;;;6202493;23;20202;-85
2021/09/22 04:19:39;;;;;;;46.03;29.58;;;13.20;99.90;;;;;;6201953;23;20203;-85
2021/09/22 04:22:06;;;;;;;42.53;28.25;;;13.20;99.90;;;;;;6202427;23;20224;-85
2021/09/22 04:24:33;;;;;;;39.22;25.77;;;13.20;99.90;;;;;;6203158;23;20183;-84
2021/09/22 04:27:02;;;;;;;42.25;29.00;;;13.20;99.90;;;;;;6202778;23;20239;-85
2021/09/22 04:29:29;;;;;;;48.00;30.80;;;13.10;99.90;;;;;;6205758;23;20223;-84
2021/09/22 04:31:57;;;;;;;37.17;29.08;;;13.10;99.90;;;;;;6204296;23;20217;-85
2021/09/22 04:34:24;;;;;;;42.25;28.25;;;13.10;99.90;;;;;;6202923;23;20261;-84
2021/09/22 04:36:52;;;;;;;42.10;28.67;;;13.10;99.90;;;;;;6202577;23;20557;-84
2021/09/22 04:39:19;;;;;;;50.50;29.42;;;13.10;99.90;;;;;;6202062;23;20217;-83
2021/09/22 04:41:46;;;;;;;50.88;28.73;;;13.00;99.90;;;;;;6202345;23;20173;-84
2021/09/22 04:44:15;;;;;;;53.25;32.67;;;13.00;99.90;;;;;;6202726;23;20214;-83
2021/09/22 04:46:45;;;;;;;42.85;30.13;;;13.00;99.90;;;;;;6202425;23;20232;-81
2021/09/22 04:49:12;;;;;;;43.40;30.00;;;13.00;99.90;;;;;;6202840;23;20201;-82
2021/09/22 04:51:39;;;;;;;53.80;33.22;;;12.90;99.90;;;;;;6200959;23;20175;-80
2021/09/22 04:54:06;;;;;;;59.90;34.03;;;12.90;99.90;;;;;;6200558;23;20283;-84
2021/09/22 04:56:34;;;;;;;46.60;30.80;;;12.90;99.90;;;;;;6201649;23;20195;-83
2021/09/22 04:59:01;;;;;;;33.88;25.17;;;12.90;99.90;;;;;;6200713;23;20207;-83
2021/09/22 05:01:29;;;;;;;40.67;25.75;;;13.10;99.90;;;;;;6200600;23;20185;-82
2021/09/22 05:03:57;;;;;;;48.40;31.13;;;13.20;99.90;;;;;;6200540;23;20182;-82
2021/09/22 05:06:24;;;;;;;35.55;24.80;;;13.30;99.90;;;;;;6200601;23;20175;-82
2021/09/22 05:08:53;;;;;;;27.42;22.63;;;13.50;99.90;;;;;;6201330;23;20267;-81
2021/09/22 05:11:20;;;;;;;32.53;22.63;;;13.60;99.90;;;;;;6201763;23;20172;-82
2021/09/22 05:13:47;;;;;;;35.65;25.23;;;13.60;99.90;;;;;;6201509;23;20180;-83
2021/09/22 05:16:15;;;;;;;30.80;20.77;;;13.70;99.90;;;;;;6205320;23;20236;-82
2021/09/22 05:18:43;;;;;;;31.65;22.27;;;13.70;99.90;;;;;;6214046;23;20234;-81
2021/09/22 05:21:10;;;;;;;32.17;23.98;;;13.70;99.90;;;;;;6214147;23;20169;-82
2021/09/22 05:23:38;;;;;;;36.47;24.45;;;13.60;99.90;;;;;;6214864;23;20198;-82
2021/09/22 05:26:05;;;;;;;36.53;24.73;;;13.60;99.90;;;;;;6214484;23;20183;-81
2021/09/22 05:28:32;;;;;;;26.25;20.15;;;13.60;99.90;;;;;;6214106;23;20204;-82
2021/09/22 05:30:59;;;;;;;28.13;20.77;;;13.60;99.90;;;;;;6214793;23;20167;-80
2021/09/22 05:33:44;;;;;;;33.08;23.42;;;13.70;99.90;;;;;;6214774;23;20165;-81
2021/09/22 05:36:11;;;;;;;26.60;20.90;;;13.70;99.90;;;;;;6213647;23;20204;-83
2021/09/22 05:38:38;;;;;;;29.35;21.08;;;13.70;99.90;;;;;;6208807;23;20204;-81
2021/09/22 05:41:05;;;;;;;35.53;25.17;;;13.70;99.90;;;;;;6203273;23;20236;-83
2021/09/22 05:43:32;;;;;;;24.65;19.80;;;13.80;99.90;;;;;;6200906;23;20231;-81
2021/09/22 05:46:00;;;;;;;26.83;19.23;;;13.80;99.90;;;;;;6200646;23;20183;-84
2021/09/22 05:48:28;;;;;;;27.77;21.67;;;13.80;99.90;;;;;;6198500;23;20199;-81
2021/09/22 05:50:57;;;;;;;24.17;18.90;;;13.80;99.90;;;;;;6198805;23;20160;-81
2021/09/22 05:53:25;;;;;;;33.50;23.23;;;13.80;99.90;;;;;;6197398;23;20194;-82
2021/09/22 05:55:52;;;;;;;29.13;22.58;;;13.80;99.90;;;;;;6197725;23;20181;-79
2021/09/22 05:58:20;;;;;;;33.88;22.52;;;13.80;99.90;;;;;;6196738;23;20206;-82
2021/09/22 06:00:47;;;;;;;32.92;23.80;;;13.80;99.90;;;;;;6195241;23;20187;-80
2021/09/22 06:03:14;;;;;;;34.80;24.48;;;13.80;99.90;;;;;;6195233;23;20176;-80
2021/09/22 06:05:42;;;;;;;41.42;25.65;;;13.70;99.90;;;;;;6196061;23;20602;-80
2021/09/22 06:08:10;;;;;;;33.72;22.42;;;13.60;99.90;;;;;;6197376;23;20196;-82
2021/09/22 06:10:38;;;;;;;24.38;19.27;;;13.60;99.90;;;;;;6203823;23;20172;-82
2021/09/22 06:13:06;;;;;;;32.38;22.15;;;13.70;99.90;;;;;;6197503;23;20594;-83
2021/09/22 06:15:33;;;;;;;30.38;21.83;;;13.70;99.90;;;;;;6198967;23;20749;-81
2021/09/22 06:18:00;;;;;;;31.58;22.60;;;13.80;99.90;;;;;;6194956;23;20542;-79
2021/09/22 06:20:27;;;;;;;33.85;23.17;;;13.90;99.90;;;;;;6194253;23;20593;-80
2021/09/22 06:22:54;;;;;;;42.30;24.38;;;13.90;99.90;;;;;;6195495;23;20232;-79
2021/09/22 06:25:23;;;;;;;37.90;26.95;;;13.80;99.90;;;;;;6194791;23;20535;-80
2021/09/22 06:27:51;;;;;;;34.38;22.45;;;13.90;99.90;;;;;;6196476;23;20182;-80
2021/09/22 06:30:19;;;;;;;37.10;22.35;;;14.10;99.90;;;;;;6196727;23;20239;-79
2021/09/22 06:32:47;;;;;;;29.70;19.35;;;14.40;99.90;;;;;;6195201;23;20180;-79
2021/09/22 06:35:14;;;;;;;25.90;19.63;;;14.60;99.90;;;;;;6194691;23;20176;-79
2021/09/22 06:37:41;;;;;;;27.50;17.38;;;15.20;99.90;;;;;;6194609;23;20202;-79
2021/09/22 06:40:09;;;;;;;24.90;18.88;;;15.90;99.90;;;;;;6195453;23;20193;-79
2021/09/22 06:42:38;;;;;;;22.85;17.63;;;16.40;99.90;;;;;;6194252;23;20183;-80
2021/09/22 06:45:06;;;;;;;19.73;15.90;;;16.70;99.90;;;;;;6196959;23;20660;-79
2021/09/22 06:47:34;;;;;;;21.43;16.10;;;17.00;99.90;;;;;;6201106;23;20239;-82
2021/09/22 06:50:01;;;;;;;26.40;16.70;;;17.40;99.90;;;;;;6202255;23;20450;-82
2021/09/22 06:52:29;;;;;;;20.80;16.20;;;17.40;99.90;;;;;;6199444;23;20203;-83
2021/09/22 06:54:56;;;;;;;28.02;18.75;;;17.10;99.90;;;;;;6198207;23;20412;-82
2021/09/22 06:57:24;;;;;;;22.83;17.85;;;16.60;99.90;;;;;;6199354;23;20229;-80
2021/09/22 06:59:52;;;;;;;23.83;16.98;;;16.30;99.90;;;;;;6200007;23;20245;-82
2021/09/22 07:02:20;;;;;;;21.88;14.77;;;16.20;99.90;;;;;;6199112;23;20211;-83
2021/09/22 07:04:47;;;;;;;24.75;17.20;;;16.20;99.90;;;;;;6198745;23;20181;-83
2021/09/22 07:07:14;;;;;;;24.52;17.88;;;16.10;99.90;;;;;;6199948;23;20182;-83
2021/09/22 07:09:41;;;;;;;18.25;13.90;;;16.20;99.90;;;;;;6199429;23;20274;-83
2021/09/22 07:12:09;;;;;;;22.38;16.42;;;16.20;99.90;;;;;;6198133;23;20233;-82
2021/09/22 07:14:36;;;;;;;16.85;14.45;;;16.20;99.90;;;;;;6199319;23;20179;-84
2021/09/22 07:17:04;;;;;;;17.95;15.10;;;16.30;99.90;;;;;;6199514;23;20220;-84
2021/09/22 07:19:32;;;;;;;21.13;15.98;;;16.30;99.90;;;;;;6200841;23;20261;-82
2021/09/22 07:21:59;;;;;;;19.05;15.75;;;16.40;99.90;;;;;;6202218;23;20176;-80
2021/09/22 07:24:27;;;;;;;23.00;15.35;;;16.30;99.90;;;;;;6201063;23;20261;-83
2021/09/22 07:26:54;;;;;;;19.90;16.10;;;16.30;99.90;;;;;;6201069;23;20610;-83
2021/09/22 07:29:21;;;;;;;19.00;14.13;;;16.50;99.90;;;;;;6198867;23;20214;-82
2021/09/22 07:31:48;;;;;;;18.88;13.52;;;16.80;99.90;;;;;;6199743;23;20179;-82
2021/09/22 07:34:17;;;;;;;16.63;13.75;;;16.80;99.90;;;;;;6201058;23;20231;-84
2021/09/22 07:36:44;;;;;;;21.50;14.63;;;16.90;99.90;;;;;;6201747;23;20184;-83
2021/09/22 07:39:11;;;;;;;17.27;12.25;;;17.30;99.90;;;;;;6203383;23;20471;-83
2021/09/22 07:41:38;;;;;;;14.20;11.70;;;18.00;99.90;;;;;;6201664;23;20238;-83
2021/09/22 07:44:06;;;;;;;14.93;11.87;;;18.50;99.90;;;;;;6206286;23;20392;-84
2021/09/22 07:46:33;;;;;;;15.87;12.53;;;18.60;99.90;;;;;;6201364;23;20971;-82
2021/09/22 07:49:00;;;;;;;15.70;11.27;;;18.90;99.90;;;;;;6200908;23;20433;-81
2021/09/22 07:51:29;;;;;;;20.57;13.00;;;18.90;99.90;;;;;;6201549;23;20414;-80
2021/09/22 07:53:56;;;;;;;14.20;12.00;;;18.90;99.90;;;;;;6205936;23;20412;-82
2021/09/22 07:56:23;;;;;;;13.43;10.50;;;19.00;99.90;;;;;;6207779;23;20422;-81
2021/09/22 07:58:51;;;;;;;16.10;10.63;;;19.60;99.90;;;;;;6206308;23;20449;-85
2021/09/22 08:01:18;;;;;;;10.47;8.67;;;20.50;99.90;;;;;;6208261;23;20441;-82
2021/09/22 08:03:45;;;;;;;11.67;9.00;;;21.00;99.90;;;;;;6211292;23;20465;-80
2021/09/22 08:06:19;;;;;;;13.67;10.43;;;21.20;99.90;;;;;;6211754;23;20410;-84
2021/09/22 08:08:48;;;;;;;12.90;9.60;;;21.20;99.90;;;;;;6212522;23;20423;-79
2021/09/22 08:11:15;;;;;;;11.20;9.13;;;21.00;99.90;;;;;;6212542;23;20423;-80
2021/09/22 08:13:42;;;;;;;11.03;7.90;;;21.40;99.90;;;;;;6211928;23;20404;-81
2021/09/22 08:16:11;;;;;;;8.40;7.10;;;22.20;99.90;;;;;;6212078;23;20419;-79
2021/09/22 08:18:38;;;;;;;10.63;7.47;;;22.70;99.90;;;;;;6210813;23;20439;-80
2021/09/22 08:21:05;;;;;;;7.70;6.23;;;22.70;99.90;;;;;;6211231;23;20395;-80
2021/09/22 08:23:32;;;;;;;9.67;6.10;;;22.80;99.90;;;;;;6212276;23;20388;-80
2021/09/22 08:26:01;;;;;;;7.50;6.57;;;23.60;98.60;;;;;;6212133;23;20402;-81
2021/09/22 08:28:28;;;;;;;9.43;5.83;;;24.40;97.30;;;;;;6212665;23;20499;-80
2021/09/22 08:30:56;;;;;;;6.70;5.97;;;25.10;95.90;;;;;;6212611;23;20391;-83
2021/09/22 08:33:23;;;;;;;9.60;6.00;;;25.90;93.90;;;;;;6208450;23;20412;-81
2021/09/22 08:35:51;;;;;;;8.07;5.83;;;25.70;93.10;;;;;;6207893;23;20458;-82
2021/09/22 08:38:18;;;;;;;5.87;5.10;;;25.90;92.40;;;;;;6208293;23;20431;-82
2021/09/22 08:40:46;;;;;;;13.13;6.30;;;26.10;92.10;;;;;;6205750;23;20466;-82
2021/09/22 08:43:15;;;;;;;6.87;4.87;;;25.90;92.20;;;;;;6206021;23;20424;-80
2021/09/22 08:45:43;;;;;;;8.53;5.13;;;24.90;93.10;;;;;;6199467;23;20478;-84
2021/09/22 08:48:11;;;;;;;4.40;3.90;;;24.60;94.30;;;;;;6200709;23;20446;-83
2021/09/22 08:50:38;;;;;;;8.63;5.60;;;24.70;93.80;;;;;;6200858;23;20432;-82
2021/09/22 08:53:06;;;;;;;8.40;5.30;;;24.80;93.70;;;;;;6199560;23;20411;-81
2021/09/22 08:55:33;;;;;;;6.67;5.20;;;25.00;93.50;;;;;;6199933;23;20404;-83
2021/09/22 08:58:00;;;;;;;7.03;5.20;;;25.40;93.00;;;;;;6201238;23;20449;-86
2021/09/22 09:00:29;;;;;;;12.57;6.67;;;24.60;93.20;;;;;;6201538;23;20407;-82
2021/09/22 09:02:56;;;;;;;11.37;6.30;;;23.40;95.00;;;;;;6202207;23;20499;-86
2021/09/22 09:05:24;;;;;;;8.87;6.70;;;23.40;96.40;;;;;;6201281;23;20695;-81
2021/09/22 09:07:54;;;;;;;8.10;5.80;;;23.60;96.60;;;;;;6201217;23;20419;-84
2021/09/22 09:10:24;;;;;;;11.50;6.57;;;23.20;96.80;;;;;;6201955;23;20407;-84
2021/09/22 09:13:02;;;;;;;9.83;6.00;;;23.00;98.30;;;;;;6202310;23;20420;-83
2021/09/22 09:15:37;;;;;;;8.33;6.87;;;23.70;97.20;;;;;;6201593;23;20467;-86
2021/09/22 09:18:13;;;;;;;11.60;8.07;;;23.30;97.80;;;;;;6200368;23;20830;-83
2021/09/22 09:20:40;;;;;;;8.77;6.37;;;23.10;97.50;;;;;;6202060;23;20422;-82
2021/09/22 09:23:12;;;;;;;7.80;6.00;;;22.70;98.70;;;;;;6202525;23;20624;-84
2021/09/22 09:25:41;;;;;;;11.70;7.10;;;22.00;99.90;;;;;;6200597;23;20791;-82
2021/09/22 09:28:18;;;;;;;7.67;4.93;;;22.00;99.90;;;;;;6201204;23;20443;-82
2021/09/22 09:30:48;;;;;;;6.50;4.97;;;22.00;99.90;;;;;;6202776;23;20455;-84
2021/09/22 09:33:37;;;;;;;5.37;3.50;;;21.90;99.90;;;;;;6201211;23;20416;-82
2021/09/22 09:36:19;;;;;;;7.33;3.50;;;21.70;99.90;;;;;;6204445;23;20391;-83
2021/09/22 09:38:51;;;;;;;9.70;3.57;;;21.40;99.90;;;;;;6203148;23;20497;-80
2021/09/22 09:41:33;;;;;;;4.53;3.00;;;21.00;99.90;;;;;;6202725;23;20419;-81
2021/09/22 09:44:03;;;;;;;5.77;3.70;;;20.70;99.90;;;;;;6203593;23;20402;-81
2021/09/22 09:46:32;;;;;;;4.67;3.70;;;20.70;99.90;;;;;;6204678;23;20416;-84
2021/09/22 09:49:04;;;;;;;6.00;3.60;;;20.90;99.90;;;;;;6203953;23;20442;-83
2021/09/22 09:51:36;;;;;;;6.13;4.83;;;21.40;99.90;;;;;;6202562;23;20455;-81
2021/09/22 09:54:08;;;;;;;8.03;5.23;;;21.90;99.90;;;;;;6202327;23;20419;-84
2021/09/22 09:56:36;;;;;;;8.50;5.60;;;21.70;99.90;;;;;;6200342;23;20506;-82
2021/09/22 09:59:04;;;;;;;9.23;5.90;;;21.50;99.90;;;;;;6200628;23;20469;-85
2021/09/22 10:01:44;;;;;;;5.83;4.50;;;21.40;99.90;;;;;;6200437;23;20415;-82
2021/09/22 10:04:13;;;;;;;10.93;5.53;;;21.40;99.90;;;;;;6201314;23;20390;-82
2021/09/22 10:06:41;;;;;;;6.30;4.93;;;21.30;99.90;;;;;;6201779;23;20427;-83
2021/09/22 10:09:09;;;;;;;6.57;3.70;;;21.30;99.90;;;;;;6202832;23;20447;-85
2021/09/22 10:11:37;;;;;;;8.13;4.67;;;21.10;99.90;;;;;;6202855;23;20438;-82
2021/09/22 10:14:06;;;;;;;5.83;5.20;;;21.00;99.90;;;;;;6202957;23;20441;-83
2021/09/22 10:16:35;;;;;;;7.47;5.70;;;20.90;99.90;;;;;;6203354;23;20816;-83
2021/09/22 10:19:05;;;;;;;9.43;5.17;;;20.80;99.90;;;;;;6201235;23;20495;-83
2021/09/22 10:21:34;;;;;;;9.10;5.17;;;20.60;99.90;;;;;;6201941;23;20478;-84
2021/09/22 10:24:04;;;;;;;6.43;4.80;;;21.20;99.90;;;;;;6201926;23;20469;-82
2021/09/22 10:26:33;;;;;;;15.20;6.17;;;21.20;99.90;;;;;;6201765;23;20398;-83
2021/09/22 10:29:00;;;;;;;11.87;5.70;;;21.20;99.90;;;;;;6200778;23;20428;-82
2021/09/22 10:31:37;;;;;;;6.10;5.50;;;21.20;99.90;;;;;;6203015;23;20435;-81
2021/09/22 10:34:07;;;;;;;6.43;5.47;;;22.00;99.90;;;;;;6202424;23;20395;-85
2021/09/22 10:36:38;;;;;;;7.70;4.87;;;22.40;98.40;;;;;;6201189;23;20403;-83
2021/09/22 10:39:06;;;;;;;6.40;4.70;;;22.60;98.30;;;;;;6202027;23;20451;-83
2021/09/22 10:41:41;;;;;;;8.10;4.97;;;22.70;97.30;;;;;;6201107;23;20403;-83
2021/09/22 10:44:12;;;;;;;9.30;5.43;;;22.70;97.70;;;;;;6201129;23;20388;-84
2021/09/22 10:46:40;;;;;;;7.37;4.20;;;22.20;98.30;;;;;;6201220;23;20445;-83
2021/09/22 10:49:15;;;;;;;10.13;5.40;;;22.00;99.10;;;;;;6200517;23;20507;-84
2021/09/22 10:51:48;;;;;;;6.60;5.43;;;22.00;99.60;;;;;;6201649;23;20418;-82
2021/09/22 10:54:18;;;;;;;6.20;4.57;;;22.10;99.40;;;;;;6201389;23;20460;-83
2021/09/22 10:56:56;;;;;;;6.23;4.47;;;22.10;98.60;;;;;;6203681;23;20399;-81
2021/09/22 10:59:37;;;;;;;6.23;5.23;;;21.90;98.00;;;;;;6213349;23;20446;-80
2021/09/22 11:02:06;;;;;;;6.73;5.40;;;21.90;97.90;;;;;;6213351;23;20398;-80
2021/09/22 11:04:55;;;;;;;9.93;5.90;;;21.60;98.70;;;;;;6213176;23;20404;-81
2021/09/22 11:07:22;;;;;;;11.73;6.27;;;21.30;99.20;;;;;;6211890;23;20490;-81
2021/09/22 11:09:50;;;;;;;6.30;5.70;;;21.20;99.90;;;;;;6211593;23;20473;-82
2021/09/22 11:12:19;;;;;;;7.70;5.87;;;21.20;99.20;;;;;;6210841;23;20472;-81
2021/09/22 11:14:59;;;;;;;9.63;6.47;;;21.30;98.90;;;;;;6209210;23;20470;-83
2021/09/22 11:17:29;;;;;;;7.73;6.23;;;21.50;98.30;;;;;;6206511;23;20493;-78
2021/09/22 11:20:00;;;;;;;8.50;6.50;;;21.40;98.20;;;;;;6211581;23;20444;-79
2021/09/22 11:22:29;;;;;;;6.07;5.43;;;20.60;99.90;;;;;;6212558;23;20394;-79
2021/09/22 11:24:59;;;;;;;9.70;5.73;;;20.60;99.90;;;;;;6212463;23;20463;-80
2021/09/22 11:27:27;;;;;;;7.53;5.90;;;20.90;99.90;;;;;;6213005;23;20423;-85
2021/09/22 11:29:59;;;;;;;8.30;5.03;;;21.30;99.90;;;;;;6212732;23;20423;-84
2021/09/22 11:32:30;;;;;;;6.97;5.10;;;21.60;98.10;;;;;;6211065;23;20400;-82
2021/09/22 11:35:01;;;;;;;9.77;5.20;;;21.60;97.20;;;;;;6207966;23;20399;-82
2021/09/22 11:37:31;;;;;;;8.17;4.77;;;21.50;97.40;;;;;;6201267;23;20390;-84
2021/09/22 11:40:11;;;;;;;9.40;4.90;;;21.50;97.60;;;;;;6200199;23;20445;-82
2021/09/22 11:42:41;;;;;;;8.33;5.77;;;21.50;98.20;;;;;;6200312;23;20384;-81
2021/09/22 11:45:09;;;;;;;10.53;5.93;;;21.70;98.00;;;;;;6199817;23;20411;-84
2021/09/22 11:47:46;;;;;;;6.83;6.00;;;21.50;98.00;;;;;;6199161;23;20399;-83
2021/09/22 11:50:30;;;;;;;10.03;6.80;;;21.20;98.60;;;;;;6200916;23;20389;-82
2021/09/22 11:52:57;;;;;;;8.07;5.70;;;20.80;99.90;;;;;;6198928;23;20396;-84
2021/09/22 11:55:25;;;;;;;9.07;6.03;;;20.80;99.90;;;;;;6200203;23;20470;-81
2021/09/22 11:57:52;;;;;;;11.67;8.77;;;20.80;99.90;;;;;;6200850;23;20407;-84
2021/09/22 12:00:23;;;;;;;8.80;7.13;;;20.80;99.90;;;;;;6201274;23;20448;-83
2021/09/22 12:02:51;;;;;;;14.63;6.93;;;21.00;99.90;;;;;;6199315;23;20423;-80
2021/09/22 12:05:21;;;;;;;9.30;6.40;;;21.40;99.90;;;;;;6198682;23;20469;-85
2021/09/22 12:07:54;;;;;;;9.87;6.80;;;21.80;99.00;;;;;;6200477;23;20430;-82
2021/09/22 12:10:23;;;;;;;10.23;7.07;;;21.80;98.20;;;;;;6200214;23;20891;-84
2021/09/22 12:12:50;;;;;;;11.37;6.90;;;22.00;97.80;;;;;;6199281;23;20431;-82
2021/09/22 12:15:17;;;;;;;10.23;7.17;;;22.20;97.60;;;;;;6199247;23;20494;-82
2021/09/22 12:17:45;;;;;;;9.73;6.63;;;22.30;97.80;;;;;;6199716;23;20492;-83
2021/09/22 12:20:15;;;;;;;10.73;6.97;;;22.40;97.20;;;;;;6201626;23;20492;-82
2021/09/22 12:22:46;;;;;;;13.00;8.23;;;22.60;97.10;;;;;;6201959;23;20821;-80
2021/09/22 12:25:16;;;;;;;9.70;6.57;;;22.60;97.00;;;;;;6199679;23;20479;-83
2021/09/22 12:27:49;;;;;;;10.50;6.10;;;22.70;96.30;;;;;;6200626;23;20427;-83
2021/09/22 12:30:18;;;;;;;8.73;7.20;;;22.80;96.40;;;;;;6201726;23;20406;-83
2021/09/22 12:32:53;;;;;;;9.97;8.30;;;22.70;96.50;;;;;;6201033;23;20760;-82
2021/09/22 12:35:21;;;;;;;15.13;7.70;;;22.20;97.20;;;;;;6199443;23;20407;-83
2021/09/22 12:37:55;;;;;;;10.50;8.00;;;21.80;98.00;;;;;;6201631;23;20410;-82
2021/09/22 12:40:29;;;;;;;11.90;8.50;;;21.60;98.50;;;;;;6204597;23;20423;-80
2021/09/22 12:42:58;;;;;;;11.60;7.20;;;21.60;99.00;;;;;;6200241;23;20430;-82
2021/09/22 12:45:28;;;;;;;10.70;7.97;;;21.50;99.00;;;;;;6201811;23;20418;-83
2021/09/22 12:47:57;;;;;;;15.33;8.50;;;21.20;98.80;;;;;;6201984;23;20412;-82
2021/09/22 12:50:26;;;;;;;20.10;8.33;;;21.00;99.30;;;;;;6200770;23;20398;-84
2021/09/22 12:53:04;;;;;;;13.63;9.20;;;20.60;99.80;;;;;;6199820;23;20490;-82
2021/09/22 12:55:37;;;;;;;12.43;9.10;;;20.50;99.90;;;;;;6200299;23;20408;-83
2021/09/22 12:58:05;;;;;;;10.50;8.97;;;20.50;99.90;;;;;;6201890;23;20433;-83
2021/09/22 13:00:37;;;;;;;9.50;7.13;;;20.50;99.90;;;;;;6208356;23;20473;-81